Time;durP1;ratioP1;P1;durP2;ratioP2;P2;SDS_P1;SDS_P2;PMS_P1;PMS_P2;Temp;Humidity;BMP_temperature;BMP_pressure;BME280_temperature;BME280_humidity;BME280_pressure;Samples;Min_cycle;Max_cycle;Signal;HPM_P1;HPM_P2
2024/02/14 00:01:18;;;;;;;25.37;12.20;;;;;;;;;;6092921;23;20384;-69
2024/02/14 00:03:44;;;;;;;22.23;10.77;;;;;;;;;;6093463;23;20009;-71
2024/02/14 00:06:13;;;;;;;23.20;10.63;;;;;;;;;;6093732;23;20006;-69
2024/02/14 00:08:38;;;;;;;20.03;9.93;;;;;;;;;;6095455;23;20006;-69
2024/02/14 00:11:04;;;;;;;18.00;10.07;;;;;;;;;;6094825;23;20086;-71
2024/02/14 00:13:29;;;;;;;23.47;11.27;;;;;;;;;;6095228;23;20002;-70
2024/02/14 00:15:56;;;;;;;19.13;9.87;;;;;;;;;;6094417;23;20355;-70
2024/02/14 00:18:22;;;;;;;22.37;11.03;;;;;;;;;;6092821;23;20787;-69
2024/02/14 00:20:49;;;;;;;21.80;11.20;;;;;;;;;;6093104;23;20704;-70
2024/02/14 00:23:15;;;;;;;29.30;11.77;;;;;;;;;;6093335;23;20068;-70
2024/02/14 00:25:40;;;;;;;25.17;11.57;;;;;;;;;;6092853;23;20037;-70
2024/02/14 00:28:06;;;;;;;21.17;11.03;;;;;;;;;;6092624;23;20016;-70
2024/02/14 00:30:32;;;;;;;25.07;11.20;;;;;;;;;;6094356;23;20006;-69
2024/02/14 00:32:58;;;;;;;24.70;10.97;;;;;;;;;;6092471;23;20382;-69
2024/02/14 00:35:24;;;;;;;25.27;11.17;;;;;;;;;;6092740;23;20965;-71
2024/02/14 00:37:50;;;;;;;27.27;10.87;;;;;;;;;;6094580;23;20034;-69
2024/02/14 00:40:16;;;;;;;20.03;11.10;;;;;;;;;;6092336;23;20018;-69
2024/02/14 00:42:41;;;;;;;19.97;10.23;;;;;;;;;;6092884;23;20003;-70
2024/02/14 00:45:08;;;;;;;34.43;13.60;;;;;;;;;;6094100;23;20013;-68
2024/02/14 00:47:34;;;;;;;23.03;10.97;;;;;;;;;;6092881;23;20003;-71
2024/02/14 00:50:00;;;;;;;18.40;10.90;;;;;;;;;;6092933;23;20010;-70
2024/02/14 00:52:26;;;;;;;24.07;11.13;;;;;;;;;;6094106;23;20006;-68
2024/02/14 00:54:52;;;;;;;22.77;11.03;;;;;;;;;;6092316;23;20045;-70
2024/02/14 00:57:19;;;;;;;26.00;10.27;;;;;;;;;;6093700;23;20018;-69
2024/02/14 00:59:44;;;;;;;18.80;10.43;;;;;;;;;;6092970;23;20416;-69
2024/02/14 01:02:10;;;;;;;18.97;10.30;;;;;;;;;;6092457;23;20010;-71
2024/02/14 01:04:37;;;;;;;30.20;11.53;;;;;;;;;;6094475;23;20014;-70
2024/02/14 01:07:03;;;;;;;21.10;9.97;;;;;;;;;;6094307;23;20081;-71
2024/02/14 01:09:29;;;;;;;22.43;10.97;;;;;;;;;;6092226;23;20078;-69
2024/02/14 01:11:54;;;;;;;21.80;11.27;;;;;;;;;;6092289;23;20431;-71
2024/02/14 01:14:21;;;;;;;21.13;10.63;;;;;;;;;;6094565;23;20072;-70
2024/02/14 01:16:47;;;;;;;21.23;11.53;;;;;;;;;;6093489;23;20030;-70
2024/02/14 01:19:13;;;;;;;21.43;12.07;;;;;;;;;;6092900;23;20010;-68
2024/02/14 01:21:39;;;;;;;18.70;10.20;;;;;;;;;;6093030;23;20003;-71
2024/02/14 01:24:08;;;;;;;20.63;9.80;;;;;;;;;;6093565;23;20021;-69
2024/02/14 01:26:34;;;;;;;19.93;9.70;;;;;;;;;;6094777;23;20016;-70
2024/02/14 01:29:02;;;;;;;22.33;10.33;;;;;;;;;;6093991;23;20006;-71
2024/02/14 01:31:28;;;;;;;21.13;9.73;;;;;;;;;;6093982;23;20379;-69
2024/02/14 01:33:53;;;;;;;22.27;10.20;;;;;;;;;;6094620;23;20006;-68
2024/02/14 01:36:19;;;;;;;19.10;9.57;;;;;;;;;;6094099;23;20022;-70
2024/02/14 01:38:45;;;;;;;19.77;10.17;;;;;;;;;;6095627;23;20042;-69
2024/02/14 01:41:10;;;;;;;21.73;10.47;;;;;;;;;;6097343;23;20002;-70
2024/02/14 01:43:37;;;;;;;17.60;9.50;;;;;;;;;;6095446;23;20013;-70
2024/02/14 01:46:07;;;;;;;26.73;10.83;;;;;;;;;;6095463;23;20073;-67
2024/02/14 01:48:34;;;;;;;19.97;10.50;;;;;;;;;;6096862;23;20006;-70
2024/02/14 01:51:01;;;;;;;18.87;9.63;;;;;;;;;;6095616;23;20085;-70
2024/02/14 01:53:30;;;;;;;21.30;10.50;;;;;;;;;;6095014;23;20030;-72
2024/02/14 01:55:58;;;;;;;21.13;10.03;;;;;;;;;;6095265;23;20419;-70
2024/02/14 01:58:24;;;;;;;21.07;10.57;;;;;;;;;;6094922;23;20053;-69
2024/02/14 02:00:55;;;;;;;24.90;10.43;;;;;;;;;;6096140;23;20003;-70
2024/02/14 02:03:24;;;;;;;16.23;8.57;;;;;;;;;;6094401;23;20006;-69
2024/02/14 02:05:51;;;;;;;20.20;10.60;;;;;;;;;;6094507;23;20014;-69
2024/02/14 02:08:17;;;;;;;17.70;8.87;;;;;;;;;;6070539;23;20010;-71
2024/02/14 02:10:42;;;;;;;17.70;9.37;;;;;;;;;;6096210;23;20475;-71
2024/02/14 02:13:09;;;;;;;22.60;9.83;;;;;;;;;;6096319;23;20101;-71
2024/02/14 02:15:34;;;;;;;17.40;8.33;;;;;;;;;;6096545;23;20010;-68
2024/02/14 02:18:05;;;;;;;19.07;8.80;;;;;;;;;;6098476;23;20104;-68
2024/02/14 02:20:32;;;;;;;19.83;9.27;;;;;;;;;;6100697;23;20002;-70
2024/02/14 02:22:59;;;;;;;18.97;8.80;;;;;;;;;;6096868;23;20002;-71
2024/02/14 02:25:26;;;;;;;17.43;9.30;;;;;;;;;;6095514;23;20014;-70
2024/02/14 02:27:56;;;;;;;17.63;8.87;;;;;;;;;;6095550;23;20073;-70
2024/02/14 02:30:22;;;;;;;18.37;9.00;;;;;;;;;;6093833;23;20006;-70
2024/02/14 02:32:50;;;;;;;18.07;9.07;;;;;;;;;;6093694;23;20086;-69
2024/02/14 02:35:15;;;;;;;20.57;9.33;;;;;;;;;;6093790;23;20015;-70
2024/02/14 02:37:41;;;;;;;21.67;9.20;;;;;;;;;;6093573;23;20085;-70
2024/02/14 02:40:09;;;;;;;20.57;9.50;;;;;;;;;;6093939;23;20086;-70
2024/02/14 02:42:35;;;;;;;24.43;9.27;;;;;;;;;;6093729;23;20431;-70
2024/02/14 02:45:02;;;;;;;17.67;9.87;;;;;;;;;;6093917;23;20065;-70
2024/02/14 02:47:27;;;;;;;26.57;10.63;;;;;;;;;;6093046;23;20090;-71
2024/02/14 02:49:53;;;;;;;18.57;8.77;;;;;;;;;;6093315;23;20010;-69
2024/02/14 02:52:19;;;;;;;16.07;8.57;;;;;;;;;;6093231;23;20013;-71
2024/02/14 02:54:44;;;;;;;17.70;9.17;;;;;;;;;;6093156;23;20022;-69
2024/02/14 02:57:12;;;;;;;16.10;8.00;;;;;;;;;;6094879;23;20432;-70
2024/02/14 02:59:43;;;;;;;15.77;8.27;;;;;;;;;;6095446;23;20010;-70
2024/02/14 03:02:11;;;;;;;13.80;8.27;;;;;;;;;;6097111;23;20025;-70
2024/02/14 03:04:38;;;;;;;17.87;8.07;;;;;;;;;;6096642;23;20025;-69
2024/02/14 03:07:06;;;;;;;16.73;7.97;;;;;;;;;;6096504;23;20026;-70
2024/02/14 03:09:32;;;;;;;14.93;7.70;;;;;;;;;;6094449;23;20003;-69
2024/02/14 03:11:58;;;;;;;18.40;9.57;;;;;;;;;;6093609;23;20317;-69
2024/02/14 03:14:24;;;;;;;13.70;7.40;;;;;;;;;;6095088;23;20009;-69
2024/02/14 03:16:49;;;;;;;20.07;8.17;;;;;;;;;;6093586;23;20168;-70
2024/02/14 03:19:15;;;;;;;14.97;8.63;;;;;;;;;;6093231;23;20018;-71
2024/02/14 03:21:42;;;;;;;17.73;9.90;;;;;;;;;;6095248;23;20065;-69
2024/02/14 03:24:10;;;;;;;18.00;8.70;;;;;;;;;;6094911;23;20002;-70
2024/02/14 03:26:38;;;;;;;19.50;9.33;;;;;;;;;;6094628;23;20007;-69
2024/02/14 03:29:07;;;;;;;19.30;9.23;;;;;;;;;;6094655;23;20097;-68
2024/02/14 03:31:34;;;;;;;19.93;9.93;;;;;;;;;;6093098;23;20002;-68
2024/02/14 03:33:59;;;;;;;22.53;8.50;;;;;;;;;;6094878;23;20408;-70
2024/02/14 03:36:28;;;;;;;18.97;8.57;;;;;;;;;;6093160;23;20098;-70
2024/02/14 03:39:03;;;;;;;20.53;8.83;;;;;;;;;;6094806;23;20002;-69
2024/02/14 03:41:29;;;;;;;20.00;8.83;;;;;;;;;;6093087;23;20023;-69
2024/02/14 03:44:00;;;;;;;14.30;8.40;;;;;;;;;;6093429;23;20006;-70
2024/02/14 03:46:28;;;;;;;19.03;9.23;;;;;;;;;;6094398;23;20010;-69
2024/02/14 03:48:57;;;;;;;15.47;8.70;;;;;;;;;;6093373;23;20010;-70
2024/02/14 03:51:23;;;;;;;18.03;9.10;;;;;;;;;;6092990;23;20011;-70
2024/02/14 03:53:49;;;;;;;15.30;7.97;;;;;;;;;;6094975;23;20479;-70
2024/02/14 03:56:16;;;;;;;17.70;8.73;;;;;;;;;;6093300;23;20492;-69
2024/02/14 03:58:42;;;;;;;21.20;10.40;;;;;;;;;;6093986;23;20026;-70
2024/02/14 04:01:07;;;;;;;21.93;8.80;;;;;;;;;;6094561;23;20482;-70
2024/02/14 04:03:34;;;;;;;20.27;9.23;;;;;;;;;;6092932;23;20010;-69
2024/02/14 04:06:01;;;;;;;16.73;9.83;;;;;;;;;;6093638;23;20006;-70
2024/02/14 04:08:29;;;;;;;18.63;8.80;;;;;;;;;;6094801;23;20478;-70
2024/02/14 04:10:55;;;;;;;19.27;8.00;;;;;;;;;;6069476;23;20117;-69
2024/02/14 04:13:23;;;;;;;16.17;8.23;;;;;;;;;;6094061;23;20082;-70
2024/02/14 04:15:49;;;;;;;18.47;9.07;;;;;;;;;;6092667;23;20010;-73
2024/02/14 04:18:15;;;;;;;14.30;8.43;;;;;;;;;;6094315;23;20083;-70
2024/02/14 04:20:41;;;;;;;17.33;8.73;;;;;;;;;;6094248;23;20602;-69
2024/02/14 04:23:07;;;;;;;16.77;8.87;;;;;;;;;;6093312;23;20459;-69
2024/02/14 04:25:33;;;;;;;15.53;7.67;;;;;;;;;;6094740;23;20080;-69
2024/02/14 04:27:59;;;;;;;21.47;8.90;;;;;;;;;;6069038;23;20014;-73
2024/02/14 04:30:26;;;;;;;15.43;8.07;;;;;;;;;;6094959;23;20061;-70
2024/02/14 04:32:51;;;;;;;19.13;8.73;;;;;;;;;;6091526;23;20022;-69
2024/02/14 04:35:19;;;;;;;16.07;8.20;;;;;;;;;;6092545;23;20604;-71
2024/02/14 04:37:46;;;;;;;23.20;8.60;;;;;;;;;;6093009;23;20022;-71
2024/02/14 04:40:12;;;;;;;16.83;8.73;;;;;;;;;;6093009;23;20061;-70
2024/02/14 04:42:38;;;;;;;22.80;9.23;;;;;;;;;;6093138;23;20061;-69
2024/02/14 04:45:05;;;;;;;21.00;8.47;;;;;;;;;;6092864;23;20006;-68
2024/02/14 04:47:31;;;;;;;16.77;9.10;;;;;;;;;;6092710;23;20022;-70
2024/02/14 04:49:57;;;;;;;15.87;8.47;;;;;;;;;;6069213;23;20013;-70
2024/02/14 04:52:23;;;;;;;15.57;8.17;;;;;;;;;;6094294;23;20006;-70
2024/02/14 04:54:48;;;;;;;15.47;8.17;;;;;;;;;;6094402;23;20009;-69
2024/02/14 04:57:15;;;;;;;22.97;9.23;;;;;;;;;;6092932;23;20019;-68
2024/02/14 04:59:40;;;;;;;13.63;8.43;;;;;;;;;;6094241;23;20018;-69
2024/02/14 05:02:06;;;;;;;19.13;8.40;;;;;;;;;;6093428;23;20006;-69
2024/02/14 05:04:34;;;;;;;16.90;7.90;;;;;;;;;;6092622;23;20013;-70
2024/02/14 05:07:00;;;;;;;18.10;9.20;;;;;;;;;;6093054;23;20030;-71
2024/02/14 05:09:26;;;;;;;17.63;8.80;;;;;;;;;;6092132;23;20013;-72
2024/02/14 05:11:52;;;;;;;20.27;8.47;;;;;;;;;;6095176;23;20010;-69
2024/02/14 05:14:19;;;;;;;15.27;8.33;;;;;;;;;;6094729;23;20010;-70
2024/02/14 05:16:46;;;;;;;18.07;10.10;;;;;;;;;;6070482;23;20022;-69
2024/02/14 05:19:11;;;;;;;19.33;8.33;;;;;;;;;;6094762;23;20010;-72
2024/02/14 05:21:37;;;;;;;18.33;8.87;;;;;;;;;;6094864;23;20319;-69
2024/02/14 05:24:05;;;;;;;18.27;8.27;;;;;;;;;;6095738;23;20065;-71
2024/02/14 05:26:31;;;;;;;15.53;8.53;;;;;;;;;;6094351;23;20010;-71
2024/02/14 05:28:58;;;;;;;16.53;8.43;;;;;;;;;;6096090;23;20009;-69
2024/02/14 05:31:24;;;;;;;18.77;8.47;;;;;;;;;;6094097;23;20458;-70
2024/02/14 05:33:49;;;;;;;16.37;8.00;;;;;;;;;;6095797;23;20010;-70
2024/02/14 05:36:15;;;;;;;14.03;8.23;;;;;;;;;;6096195;23;20026;-70
2024/02/14 05:38:40;;;;;;;17.30;7.90;;;;;;;;;;6095946;23;20033;-72
2024/02/14 05:41:07;;;;;;;13.00;7.00;;;;;;;;;;6094770;23;20006;-70
2024/02/14 05:43:34;;;;;;;16.80;8.33;;;;;;;;;;6096025;23;20062;-69
2024/02/14 05:46:01;;;;;;;19.20;8.63;;;;;;;;;;6096044;23;20379;-70
2024/02/14 05:48:26;;;;;;;16.50;8.43;;;;;;;;;;6094114;23;20021;-71
2024/02/14 05:50:52;;;;;;;16.20;8.87;;;;;;;;;;6094041;23;20006;-69
2024/02/14 05:53:17;;;;;;;19.50;8.63;;;;;;;;;;6094483;23;20010;-69
2024/02/14 05:55:45;;;;;;;16.57;8.23;;;;;;;;;;6095402;23;20503;-68
2024/02/14 05:58:12;;;;;;;15.47;8.70;;;;;;;;;;6095407;23;20033;-69
2024/02/14 06:00:38;;;;;;;16.00;8.10;;;;;;;;;;6095899;23;20010;-71
2024/02/14 06:03:06;;;;;;;16.13;8.20;;;;;;;;;;6094548;23;20069;-69
2024/02/14 06:05:31;;;;;;;20.20;9.77;;;;;;;;;;6094168;23;20010;-71
2024/02/14 06:07:57;;;;;;;16.83;8.77;;;;;;;;;;6095804;23;20010;-71
2024/02/14 06:10:25;;;;;;;17.30;8.60;;;;;;;;;;6094288;23;20010;-70
2024/02/14 06:12:52;;;;;;;19.07;8.80;;;;;;;;;;6094317;23;20006;-68
2024/02/14 06:15:18;;;;;;;18.70;8.30;;;;;;;;;;6096112;23;20002;-71
2024/02/14 06:17:44;;;;;;;22.60;7.60;;;;;;;;;;6095129;23;20081;-69
2024/02/14 06:20:12;;;;;;;14.83;8.20;;;;;;;;;;6098334;23;20002;-69
2024/02/14 06:22:38;;;;;;;16.57;7.53;;;;;;;;;;6099505;23;20126;-70
2024/02/14 06:25:04;;;;;;;19.20;9.03;;;;;;;;;;6101477;23;19998;-70
2024/02/14 06:27:32;;;;;;;21.80;9.07;;;;;;;;;;6097385;23;20033;-71
2024/02/14 06:29:59;;;;;;;25.20;8.93;;;;;;;;;;6095931;23;20057;-70
2024/02/14 06:32:25;;;;;;;24.97;8.70;;;;;;;;;;6094050;23;20045;-74
2024/02/14 06:34:51;;;;;;;18.50;8.10;;;;;;;;;;6094028;23;20002;-72
2024/02/14 06:37:16;;;;;;;20.23;8.30;;;;;;;;;;6096183;23;20010;-70
2024/02/14 06:39:42;;;;;;;17.10;8.50;;;;;;;;;;6090085;23;20029;-70
2024/02/14 06:42:08;;;;;;;22.53;9.37;;;;;;;;;;6095016;23;20003;-71
2024/02/14 06:44:33;;;;;;;19.50;8.07;;;;;;;;;;6095347;23;20654;-70
2024/02/14 06:47:00;;;;;;;19.10;9.03;;;;;;;;;;6094169;23;20526;-72
2024/02/14 06:49:26;;;;;;;20.07;8.53;;;;;;;;;;6094929;23;20428;-71
2024/02/14 06:51:51;;;;;;;20.60;9.47;;;;;;;;;;6093429;23;20013;-71
2024/02/14 06:54:19;;;;;;;19.67;8.97;;;;;;;;;;6092264;23;20010;-70
2024/02/14 06:56:45;;;;;;;16.97;8.70;;;;;;;;;;6091025;23;20006;-70
2024/02/14 06:59:11;;;;;;;19.67;8.57;;;;;;;;;;6090777;23;20026;-71
2024/02/14 07:01:36;;;;;;;21.30;8.63;;;;;;;;;;6091809;23;20331;-70
2024/02/14 07:04:03;;;;;;;17.90;8.37;;;;;;;;;;6090355;23;20017;-69
2024/02/14 07:06:28;;;;;;;16.47;7.67;;;;;;;;;;6093221;23;20002;-69
2024/02/14 07:08:57;;;;;;;21.73;9.30;;;;;;;;;;6092374;23;20199;-71
2024/02/14 07:11:24;;;;;;;15.87;7.73;;;;;;;;;;6091474;23;20029;-70
2024/02/14 07:13:49;;;;;;;21.23;8.97;;;;;;;;;;6093378;23;20086;-69
2024/02/14 07:16:15;;;;;;;18.40;9.63;;;;;;;;;;6094463;23;20034;-70
2024/02/14 07:18:41;;;;;;;17.07;8.50;;;;;;;;;;6094256;23;20034;-70
2024/02/14 07:21:06;;;;;;;22.03;8.27;;;;;;;;;;6093658;23;20009;-71
2024/02/14 07:23:33;;;;;;;15.03;8.33;;;;;;;;;;6089516;23;20307;-69
2024/02/14 07:26:00;;;;;;;14.30;7.47;;;;;;;;;;6092391;23;20045;-70
2024/02/14 07:28:26;;;;;;;17.67;8.10;;;;;;;;;;6091391;23;20018;-69
2024/02/14 07:30:51;;;;;;;16.00;8.07;;;;;;;;;;6092576;23;20010;-70
2024/02/14 07:33:17;;;;;;;20.77;9.90;;;;;;;;;;6090681;23;20523;-70
2024/02/14 07:35:42;;;;;;;18.47;8.83;;;;;;;;;;6090482;23;20014;-71
2024/02/14 07:38:08;;;;;;;17.83;8.53;;;;;;;;;;6091131;23;20007;-71
2024/02/14 07:40:36;;;;;;;20.13;8.30;;;;;;;;;;6092437;23;20014;-70
2024/02/14 07:43:02;;;;;;;14.97;7.67;;;;;;;;;;6089935;23;20530;-70
2024/02/14 07:45:28;;;;;;;16.40;8.57;;;;;;;;;;6093982;23;20073;-71
2024/02/14 07:47:53;;;;;;;17.23;7.90;;;;;;;;;;6090589;23;20408;-71
2024/02/14 07:50:19;;;;;;;16.60;8.73;;;;;;;;;;6094472;23;20308;-71
2024/02/14 07:52:45;;;;;;;16.67;8.40;;;;;;;;;;6091533;23;20081;-71
2024/02/14 07:55:14;;;;;;;15.77;8.33;;;;;;;;;;6090547;23;20015;-70
2024/02/14 07:57:42;;;;;;;11.83;6.40;;;;;;;;;;6090407;23;20064;-72
2024/02/14 08:00:10;;;;;;;12.20;7.63;;;;;;;;;;6091657;23;20014;-70
2024/02/14 08:02:39;;;;;;;15.83;8.87;;;;;;;;;;6087990;23;20022;-73
2024/02/14 08:05:05;;;;;;;16.70;8.67;;;;;;;;;;6093392;23;20003;-72
2024/02/14 08:07:30;;;;;;;20.93;8.17;;;;;;;;;;6091974;23;20037;-71
2024/02/14 08:09:56;;;;;;;19.03;8.70;;;;;;;;;;6094034;23;20100;-68
2024/02/14 08:12:25;;;;;;;19.53;8.20;;;;;;;;;;6089232;23;20002;-72
2024/02/14 08:14:52;;;;;;;20.30;7.90;;;;;;;;;;6092116;23;20006;-70
2024/02/14 08:17:17;;;;;;;20.43;9.90;;;;;;;;;;6089508;23;20018;-70
2024/02/14 08:19:43;;;;;;;16.63;7.87;;;;;;;;;;6092845;23;20372;-69
2024/02/14 08:22:09;;;;;;;22.63;8.23;;;;;;;;;;6092069;23;19999;-70
2024/02/14 08:24:34;;;;;;;25.03;8.53;;;;;;;;;;6092646;23;20006;-72
2024/02/14 08:27:01;;;;;;;13.30;8.00;;;;;;;;;;6089505;23;20521;-69
2024/02/14 08:29:27;;;;;;;18.93;10.03;;;;;;;;;;6088809;23;20335;-71
2024/02/14 08:31:55;;;;;;;14.33;7.27;;;;;;;;;;6088056;23;20092;-70
2024/02/14 08:34:21;;;;;;;23.53;8.13;;;;;;;;;;6088800;23;20006;-75
2024/02/14 08:36:47;;;;;;;15.57;7.73;;;;;;;;;;6090304;23;20048;-71
2024/02/14 08:39:12;;;;;;;15.07;8.03;;;;;;;;;;6089197;23;20093;-69
2024/02/14 08:41:44;;;;;;;23.57;9.80;;;;;;;;;;6090729;23;20005;-70
2024/02/14 08:44:10;;;;;;;19.23;7.80;;;;;;;;;;6089882;23;20387;-69
2024/02/14 08:46:36;;;;;;;16.27;7.43;;;;;;;;;;6091991;23;20011;-71
2024/02/14 08:49:08;;;;;;;12.43;6.50;;;;;;;;;;6089586;23;20013;-72
2024/02/14 08:51:37;;;;;;;16.23;6.43;;;;;;;;;;6088878;23;20440;-72
2024/02/14 08:54:06;;;;;;;17.77;6.60;;;;;;;;;;6088654;23;20010;-70
2024/02/14 08:56:33;;;;;;;17.27;7.40;;;;;;;;;;6090129;23;20006;-70
2024/02/14 08:59:02;;;;;;;23.93;8.10;;;;;;;;;;6088255;23;20026;-70
2024/02/14 09:01:30;;;;;;;13.80;6.97;;;;;;;;;;6091535;23;20003;-69
2024/02/14 09:03:57;;;;;;;16.13;6.97;;;;;;;;;;6089344;23;20018;-71
2024/02/14 09:06:24;;;;;;;16.33;7.07;;;;;;;;;;6089356;23;20014;-71
2024/02/14 09:08:51;;;;;;;16.40;6.77;;;;;;;;;;6088371;23;20007;-71
2024/02/14 09:11:16;;;;;;;18.53;7.73;;;;;;;;;;6090169;23;20459;-69
2024/02/14 09:13:42;;;;;;;15.77;7.43;;;;;;;;;;6089463;23;20053;-69
2024/02/14 09:16:10;;;;;;;18.33;7.20;;;;;;;;;;6090387;23;20006;-70
2024/02/14 09:18:35;;;;;;;11.95;5.97;;;;;;;;;;6066396;23;20232;-71
2024/02/14 09:21:03;;;;;;;14.47;6.93;;;;;;;;;;6088643;23;20018;-72
2024/02/14 09:23:29;;;;;;;14.98;7.40;;;;;;;;;;6087096;23;20192;-70
2024/02/14 09:25:58;;;;;;;13.87;6.67;;;;;;;;;;6090151;23;20085;-72
2024/02/14 09:28:25;;;;;;;12.20;6.68;;;;;;;;;;6091820;23;20006;-70
2024/02/14 09:30:50;;;;;;;18.13;6.85;;;;;;;;;;6088335;23;20011;-70
2024/02/14 09:33:16;;;;;;;24.57;7.90;;;;;;;;;;6089232;23;20110;-69
2024/02/14 09:35:45;;;;;;;15.60;7.05;;;;;;;;;;6090456;23;20029;-70
2024/02/14 09:38:14;;;;;;;17.88;7.35;;;;;;;;;;6089389;23;20466;-70
2024/02/14 09:40:42;;;;;;;11.85;6.10;;;;;;;;;;6086728;23;20015;-73
2024/02/14 09:43:43;;;;;;;16.92;6.90;;;;;;;;;;6088950;23;19998;-71
2024/02/14 09:46:08;;;;;;;14.35;7.28;;;;;;;;;;6058143;23;20337;-72
2024/02/14 09:48:35;;;;;;;14.40;6.07;;;;;;;;;;6087343;23;20017;-70
2024/02/14 09:51:03;;;;;;;10.07;5.70;;;;;;;;;;6090328;23;20021;-71
2024/02/14 09:53:32;;;;;;;10.77;5.15;;;;;;;;;;6089507;23;20010;-73
2024/02/14 09:55:59;;;;;;;12.82;5.95;;;;;;;;;;6090478;23;20439;-72
2024/02/14 09:58:27;;;;;;;10.88;4.45;;;;;;;;;;6089919;23;20081;-70
2024/02/14 10:00:55;;;;;;;11.55;6.03;;;;;;;;;;6067219;23;20339;-69
2024/02/14 10:03:21;;;;;;;11.80;5.90;;;;;;;;;;6091576;23;20030;-71
2024/02/14 10:05:47;;;;;;;19.35;7.25;;;;;;;;;;6088650;23;20006;-70
2024/02/14 10:08:15;;;;;;;13.20;5.43;;;;;;;;;;6089000;23;20408;-72
2024/02/14 10:10:41;;;;;;;15.30;5.50;;;;;;;;;;6076851;23;20010;-71
2024/02/14 10:13:07;;;;;;;13.40;6.20;;;;;;;;;;6092711;23;20012;-71
2024/02/14 10:15:33;;;;;;;12.88;5.55;;;;;;;;;;6068073;23;20081;-69
2024/02/14 10:17:59;;;;;;;13.80;5.13;;;;;;;;;;6066810;23;20014;-71
2024/02/14 10:20:26;;;;;;;11.43;6.35;;;;;;;;;;6094645;23;20006;-71
2024/02/14 10:23:00;;;;;;;10.60;5.32;;;;;;;;;;6095833;23;19998;-71
2024/02/14 10:25:27;;;;;;;10.48;4.80;;;;;;;;;;6096210;23;20021;-70
2024/02/14 10:27:52;;;;;;;11.98;4.95;;;;;;;;;;6094827;23;20013;-71
2024/02/14 10:30:18;;;;;;;11.45;5.13;;;;;;;;;;6097413;23;20372;-71
2024/02/14 10:32:49;;;;;;;12.95;4.97;;;;;;;;;;6094847;23;20010;-72
2024/02/14 10:35:15;;;;;;;8.30;4.82;;;;;;;;;;6093447;23;20020;-71
2024/02/14 10:37:42;;;;;;;13.05;5.45;;;;;;;;;;6089761;23;20013;-71
2024/02/14 10:40:12;;;;;;;10.63;5.55;;;;;;;;;;6091293;23;20038;-70
2024/02/14 10:42:38;;;;;;;15.07;6.45;;;;;;;;;;6090264;23;20477;-70
2024/02/14 10:45:05;;;;;;;10.05;5.38;;;;;;;;;;6091504;23;20089;-71
2024/02/14 10:47:35;;;;;;;10.40;4.90;;;;;;;;;;6087699;23;20018;-69
2024/02/14 10:50:05;;;;;;;13.73;6.00;;;;;;;;;;6091293;23;20058;-71
2024/02/14 10:52:40;;;;;;;10.07;5.65;;;;;;;;;;6065082;23;20065;-69
2024/02/14 10:55:07;;;;;;;13.02;5.45;;;;;;;;;;6092647;23;20010;-71
2024/02/14 10:57:33;;;;;;;12.32;4.75;;;;;;;;;;6086088;23;20436;-69
2024/02/14 11:00:03;;;;;;;9.73;5.00;;;;;;;;;;6091008;23;20006;-72
2024/02/14 11:02:32;;;;;;;13.65;5.18;;;;;;;;;;6087766;23;20018;-75
2024/02/14 11:05:00;;;;;;;7.28;4.18;;;;;;;;;;6090988;23;20026;-71
2024/02/14 11:07:30;;;;;;;10.55;4.88;;;;;;;;;;6085934;23;20009;-71
2024/02/14 11:10:08;;;;;;;18.88;6.32;;;;;;;;;;6089038;23;20443;-72
2024/02/14 11:12:38;;;;;;;13.68;5.20;;;;;;;;;;6089187;23;20335;-72
2024/02/14 11:15:30;;;;;;;10.10;5.95;;;;;;;;;;6089319;23;20431;-72
2024/02/14 11:18:07;;;;;;;8.05;4.05;;;;;;;;;;6091950;23;20037;-70
2024/02/14 11:20:35;;;;;;;8.60;4.97;;;;;;;;;;6092509;23;20276;-71
2024/02/14 11:23:13;;;;;;;9.52;4.35;;;;;;;;;;6091249;23;20009;-69
2024/02/14 11:25:38;;;;;;;9.52;4.75;;;;;;;;;;6066983;23;20351;-70
2024/02/14 11:28:15;;;;;;;9.65;4.72;;;;;;;;;;6042922;23;20010;-72
2024/02/14 11:30:42;;;;;;;11.63;4.30;;;;;;;;;;6088070;23;20010;-71
2024/02/14 11:33:23;;;;;;;11.60;4.90;;;;;;;;;;6087878;23;20012;-70
2024/02/14 11:35:54;;;;;;;15.32;5.90;;;;;;;;;;6067370;23;20018;-71
2024/02/14 11:38:20;;;;;;;7.32;4.35;;;;;;;;;;6092153;23;20313;-71
2024/02/14 11:40:46;;;;;;;7.10;3.75;;;;;;;;;;6092231;23;20010;-70
2024/02/14 11:43:21;;;;;;;6.45;2.90;;;;;;;;;;6092305;23;20003;-71
2024/02/14 11:45:51;;;;;;;4.63;2.70;;;;;;;;;;6088760;23;20356;-70
2024/02/14 11:48:19;;;;;;;6.78;3.00;;;;;;;;;;6090157;23;20010;-71
2024/02/14 11:50:47;;;;;;;8.60;2.78;;;;;;;;;;6086874;23;20010;-73
2024/02/14 11:53:18;;;;;;;8.10;2.42;;;;;;;;;;6090655;23;20015;-71
2024/02/14 11:55:46;;;;;;;2.55;1.83;;;;;;;;;;6091313;23;20010;-71
2024/02/14 11:58:15;;;;;;;2.75;1.55;;;;;;;;;;6091423;23;20442;-70
2024/02/14 12:00:45;;;;;;;2.60;1.33;;;;;;;;;;6089387;23;20018;-71
2024/02/14 12:03:31;;;;;;;3.90;1.20;;;;;;;;;;6085933;23;20014;-71
2024/02/14 12:05:57;;;;;;;2.55;1.38;;;;;;;;;;6088905;23;20012;-70
2024/02/14 12:08:23;;;;;;;3.17;1.75;;;;;;;;;;6088474;23;20010;-72
2024/02/14 12:10:52;;;;;;;4.43;1.40;;;;;;;;;;6089297;23;20033;-72
2024/02/14 12:13:21;;;;;;;3.40;1.60;;;;;;;;;;6091253;23;20003;-69
2024/02/14 12:15:49;;;;;;;2.42;1.02;;;;;;;;;;6088837;23;20014;-71
2024/02/14 12:18:20;;;;;;;1.55;1.00;;;;;;;;;;6088080;23;20037;-70
2024/02/14 12:20:50;;;;;;;1.67;1.10;;;;;;;;;;6088879;23;20013;-71
2024/02/14 12:23:17;;;;;;;2.67;1.25;;;;;;;;;;6089908;23;20240;-69
2024/02/14 12:25:43;;;;;;;3.90;1.83;;;;;;;;;;6090347;23;20431;-71
2024/02/14 12:28:16;;;;;;;2.58;1.30;;;;;;;;;;6091184;23;20338;-73
2024/02/14 12:30:56;;;;;;;2.08;1.10;;;;;;;;;;6089563;23;20007;-70
2024/02/14 12:33:23;;;;;;;2.05;1.48;;;;;;;;;;6091235;23;20110;-72
2024/02/14 12:35:50;;;;;;;6.22;1.30;;;;;;;;;;6091356;23;20006;-70
2024/02/14 12:38:18;;;;;;;2.40;1.30;;;;;;;;;;6091450;23;20010;-70
2024/02/14 12:40:46;;;;;;;3.85;1.42;;;;;;;;;;6088079;23;20010;-70
2024/02/14 12:43:15;;;;;;;1.48;1.30;;;;;;;;;;6088180;23;20006;-73
2024/02/14 12:45:42;;;;;;;1.52;1.17;;;;;;;;;;6087453;23;20013;-70
2024/02/14 12:48:10;;;;;;;2.30;1.40;;;;;;;;;;6089713;23;20622;-71
2024/02/14 12:50:39;;;;;;;4.95;1.58;;;;;;;;;;6090165;23;20402;-73
2024/02/14 12:53:05;;;;;;;7.90;1.95;;;;;;;;;;6089623;23;20121;-71
2024/02/14 12:55:31;;;;;;;3.53;1.73;;;;;;;;;;6091753;23;20391;-72
2024/02/14 12:57:58;;;;;;;3.17;1.25;;;;;;;;;;6090855;23;20026;-71
2024/02/14 13:00:24;;;;;;;3.92;1.58;;;;;;;;;;6090221;23;20018;-72
2024/02/14 13:02:50;;;;;;;3.33;1.17;;;;;;;;;;6087900;23;20041;-69
2024/02/14 13:05:17;;;;;;;3.25;1.40;;;;;;;;;;6091481;23;20006;-70
2024/02/14 13:07:43;;;;;;;5.40;1.92;;;;;;;;;;6092898;23;20006;-71
2024/02/14 13:10:10;;;;;;;5.82;2.00;;;;;;;;;;6091822;23;20041;-71
2024/02/14 13:12:40;;;;;;;2.97;1.38;;;;;;;;;;6093079;23;20036;-71
2024/02/14 13:15:08;;;;;;;5.57;1.73;;;;;;;;;;6062772;23;20025;-69
2024/02/14 13:17:34;;;;;;;5.28;2.35;;;;;;;;;;6089985;23;20021;-70
2024/02/14 13:20:01;;;;;;;5.43;2.33;;;;;;;;;;6090579;23;20428;-72
2024/02/14 13:22:27;;;;;;;6.32;2.00;;;;;;;;;;6089416;23;20010;-69
2024/02/14 13:24:56;;;;;;;3.33;2.00;;;;;;;;;;6089671;23;20006;-71
2024/02/14 13:27:23;;;;;;;5.35;1.52;;;;;;;;;;6089813;23;20053;-72
2024/02/14 13:29:49;;;;;;;2.97;1.58;;;;;;;;;;6091367;23;20172;-71
2024/02/14 13:32:15;;;;;;;3.92;1.50;;;;;;;;;;6091929;23;20363;-71
2024/02/14 13:34:44;;;;;;;5.18;1.45;;;;;;;;;;6090923;23;20424;-71
2024/02/14 13:37:10;;;;;;;7.57;2.90;;;;;;;;;;6094756;23;20499;-70
2024/02/14 13:39:36;;;;;;;3.88;2.03;;;;;;;;;;6094764;23;20145;-71
2024/02/14 13:42:02;;;;;;;3.17;1.58;;;;;;;;;;6094618;23;20459;-71
2024/02/14 13:44:29;;;;;;;2.50;1.67;;;;;;;;;;6093851;23;20003;-69
2024/02/14 13:46:55;;;;;;;3.30;1.42;;;;;;;;;;6093717;23;20017;-71
2024/02/14 13:49:23;;;;;;;5.32;1.65;;;;;;;;;;6093685;23;20006;-69
2024/02/14 13:51:53;;;;;;;2.17;1.70;;;;;;;;;;6091861;23;20436;-72
2024/02/14 13:54:23;;;;;;;4.03;1.75;;;;;;;;;;6092441;23;20010;-71
2024/02/14 13:56:50;;;;;;;3.63;1.75;;;;;;;;;;6092545;23;20010;-70
2024/02/14 13:59:18;;;;;;;7.80;2.28;;;;;;;;;;6094439;23;20089;-71
2024/02/14 14:01:45;;;;;;;4.78;1.77;;;;;;;;;;6086982;23;20006;-74
2024/02/14 14:04:12;;;;;;;4.80;1.38;;;;;;;;;;6065469;23;20013;-72
2024/02/14 14:06:39;;;;;;;3.35;1.73;;;;;;;;;;6091058;23;20336;-72
2024/02/14 14:09:07;;;;;;;2.42;1.15;;;;;;;;;;6092378;23;20114;-72
2024/02/14 14:11:33;;;;;;;4.40;1.85;;;;;;;;;;6092909;23;20297;-71
2024/02/14 14:14:00;;;;;;;3.78;1.55;;;;;;;;;;6088828;23;20114;-70
2024/02/14 14:16:26;;;;;;;9.95;2.10;;;;;;;;;;6088857;23;20033;-71
2024/02/14 14:18:52;;;;;;;3.15;1.48;;;;;;;;;;6089384;23;20034;-71
2024/02/14 14:21:18;;;;;;;3.75;1.48;;;;;;;;;;6090654;23;20010;-72
2024/02/14 14:23:44;;;;;;;9.38;2.80;;;;;;;;;;6092810;23;20084;-69
2024/02/14 14:26:10;;;;;;;8.18;2.10;;;;;;;;;;6090257;23;20317;-69
2024/02/14 14:28:37;;;;;;;2.70;1.70;;;;;;;;;;6090481;23;20017;-69
2024/02/14 14:31:03;;;;;;;5.88;1.98;;;;;;;;;;6087629;23;20002;-72